Impacts TAF Board INFO
FOR SITUATIONAL AWARENESS. NOT TO BE USED FOR FLIGHT PLANNING PURPOSES.
IDs:

KBDR - Bridgeport/Sikorsky, CT, US

Issued at 0243 UTC 20 Jul 2018
Updated at 0312 UTC 20 Jul 2018
Potential Impact None Slight Moderate High
Time<<20/16Z 20/17Z 20/18Z 20/19Z 20/20Z 20/21Z 20/22Z 20/23Z 21/00Z 21/01Z 21/02Z 21/03Z 21/04Z>>
Type PRVL PRVL PRVL PRVL PRVL PRVL PRVL PRVL
VIS >6 >6 >6 >6 >6 >6 >6 >6
CIG -- -- -- -- -- -- -- --
Cover FEW FEW FEW FEW SCT SCT SCT SCT
FltCat VFR VFR VFR VFR VFR VFR VFR VFR
WX -- -- -- -- -- -- -- --
WDir 160 160 160 160 190 190 190 190
WSpd 6 6 6 6 10 10 10 10
WGst -- -- -- -- -- -- -- --

Raw TAF
KBDR 200243Z 2003/2024 VRB03KT P6SM SKC
  FM201500 16006KT P6SM FEW250
  FM202000 19010KT P6SM SCT250


METAR Board
Radar Display
Forecast Discussion

FOR SITUATIONAL AWARENESS. NOT TO BE USED FOR FLIGHT PLANNING PURPOSES.